Time;durP1;ratioP1;P1;durP2;ratioP2;P2;SDS_P1;SDS_P2;PMS_P1;PMS_P2;Temp;Humidity;BMP_temperature;BMP_pressure;BME280_temperature;BME280_humidity;BME280_pressure;Samples;Min_cycle;Max_cycle;Signal;HPM_P1;HPM_P2
2021/08/21 00:02:03;;;;;;;2.50;1.81;;;;;;;14.75;88.78;99502.78;2028458;77;23109;-70
2021/08/21 00:05:07;;;;;;;4.54;2.01;;;;;;;14.79;88.97;99500.94;2027958;79;20736;-70
2021/08/21 00:08:10;;;;;;;3.63;2.10;;;;;;;14.82;88.83;99495.66;2028257;79;20203;-71
2021/08/21 00:11:13;;;;;;;4.90;2.76;;;;;;;14.84;88.90;99498.22;2027926;79;20162;-70
2021/08/21 00:14:15;;;;;;;2.78;1.90;;;;;;;14.81;89.02;99497.41;2027976;79;20663;-71
2021/08/21 00:17:18;;;;;;;2.70;1.73;;;;;;;14.79;88.82;99493.97;2031538;76;21099;-71
2021/08/21 00:20:22;;;;;;;3.84;1.86;;;;;;;14.75;88.83;99496.69;2032624;79;20158;-71
2021/08/21 00:23:24;;;;;;;3.60;1.81;;;;;;;14.70;88.81;99498.50;2032766;79;20177;-70
2021/08/21 00:26:27;;;;;;;3.09;1.94;;;;;;;14.65;88.80;99495.13;2032773;79;20650;-71
2021/08/21 00:29:31;;;;;;;2.09;1.79;;;;;;;14.60;88.59;99491.75;2032415;79;20162;-70
2021/08/21 00:32:34;;;;;;;4.09;1.75;;;;;;;14.55;88.61;99501.44;2027501;77;20983;-70
2021/08/21 00:35:36;;;;;;;2.29;1.50;;;;;;;14.50;88.48;99497.13;2027737;79;20228;-70
2021/08/21 00:38:39;;;;;;;2.78;1.76;;;;;;;14.45;88.40;99493.75;2026750;79;20238;-70
2021/08/21 00:41:42;;;;;;;3.38;1.85;;;;;;;14.44;88.60;99493.78;2030648;79;20154;-71
2021/08/21 00:44:45;;;;;;;2.99;1.70;;;;;;;14.41;88.76;99496.41;2027032;79;20231;-70
2021/08/21 00:47:48;;;;;;;3.49;1.91;;;;;;;14.38;88.92;99494.72;2031422;76;20836;-70
2021/08/21 00:50:51;;;;;;;3.60;1.70;;;;;;;14.33;88.70;99498.28;2032705;79;20378;-70
2021/08/21 00:53:54;;;;;;;2.30;1.59;;;;;;;14.30;88.81;99504.44;2033103;79;20195;-70
2021/08/21 00:56:58;;;;;;;2.97;1.71;;;;;;;14.28;88.99;99495.78;2032750;79;20169;-71
2021/08/21 01:00:01;;;;;;;3.34;1.64;;;;;;;14.28;89.09;99492.28;2032468;79;20207;-71
2021/08/21 01:03:04;;;;;;;2.51;1.90;;;;;;;14.26;89.21;99492.31;2027023;77;21339;-71
2021/08/21 01:06:07;;;;;;;2.67;1.70;;;;;;;14.22;88.91;99485.44;2027089;80;20205;-70
2021/08/21 01:09:09;;;;;;;2.76;1.64;;;;;;;14.22;88.72;99472.38;2027893;80;20212;-70
2021/08/21 01:12:14;;;;;;;2.55;1.74;;;;;;;14.18;88.75;99486.34;2026836;80;20741;-71
2021/08/21 01:15:25;;;;;;;3.78;1.91;;;;;;;14.13;88.66;99475.16;2027038;80;20178;-70
2021/08/21 01:18:27;;;;;;;1.94;1.71;;;;;;;14.09;89.18;99474.34;2026868;78;20975;-71
2021/08/21 01:21:30;;;;;;;3.39;2.00;;;;;;;14.10;89.38;99469.97;2027187;80;20204;-71
2021/08/21 01:24:34;;;;;;;3.35;1.88;;;;;;;14.13;89.06;99472.53;2027341;80;20220;-70
2021/08/21 01:27:37;;;;;;;3.69;1.75;;;;;;;14.09;89.08;99470.88;2026688;80;20198;-71
2021/08/21 01:30:42;;;;;;;3.44;1.48;;;;;;;14.09;88.99;99470.88;2027532;79;20829;-71
2021/08/21 01:33:45;;;;;;;2.03;1.58;;;;;;;14.06;88.81;99465.69;2030958;76;21021;-73
2021/08/21 01:36:49;;;;;;;4.31;1.98;;;;;;;14.01;88.81;99471.00;2032161;79;20166;-70
2021/08/21 01:39:54;;;;;;;3.83;1.74;;;;;;;14.00;88.83;99468.41;2032398;79;20202;-70
2021/08/21 01:42:56;;;;;;;1.74;1.50;;;;;;;13.93;88.92;99458.97;2032803;79;20751;-72
2021/08/21 01:45:59;;;;;;;3.67;1.50;;;;;;;13.92;89.16;99468.53;2030582;77;20749;-70
2021/08/21 01:49:04;;;;;;;6.38;1.74;;;;;;;13.88;89.23;99457.31;2029066;79;20327;-70
2021/08/21 01:52:07;;;;;;;3.46;1.81;;;;;;;13.86;89.35;99458.22;2028019;79;20204;-70
2021/08/21 01:55:10;;;;;;;4.65;2.00;;;;;;;13.84;89.38;99455.63;2028029;79;20610;-71
2021/08/21 01:58:20;;;;;;;2.64;1.73;;;;;;;13.84;89.36;99460.84;2027575;79;20192;-71
2021/08/21 02:01:22;;;;;;;2.13;1.64;;;;;;;13.83;89.30;99458.28;2030327;77;22512;-70
2021/08/21 02:04:26;;;;;;;2.92;1.70;;;;;;;13.81;89.26;99460.00;2035685;79;20315;-70
2021/08/21 02:07:29;;;;;;;5.16;1.77;;;;;;;13.79;89.22;99456.56;2034118;79;20655;-71
2021/08/21 02:10:31;;;;;;;2.69;1.64;;;;;;;13.76;89.39;99461.84;2034502;79;20307;-70
2021/08/21 02:13:34;;;;;;;2.78;1.84;;;;;;;13.73;89.41;99461.91;2034827;79;20165;-70
2021/08/21 02:16:37;;;;;;;4.86;1.80;;;;;;;13.73;89.76;99454.06;2033168;77;20451;-70
2021/08/21 02:19:40;;;;;;;2.61;1.81;;;;;;;13.72;89.77;99457.56;2029576;79;20204;-70
2021/08/21 02:22:44;;;;;;;4.20;1.61;;;;;;;13.71;89.80;99456.72;2029492;79;20708;-70
2021/08/21 02:25:49;;;;;;;1.96;1.65;;;;;;;13.71;89.85;99461.06;2029975;79;20589;-69
2021/08/21 02:28:52;;;;;;;1.91;1.61;;;;;;;13.69;89.71;99450.66;2028762;79;20206;-70
2021/08/21 02:31:55;;;;;;;1.46;1.35;;;;;;;13.66;89.61;99437.66;2028046;78;21526;-71
2021/08/21 02:34:58;;;;;;;2.03;1.52;;;;;;;13.67;89.62;99444.59;2035090;79;20923;-70
2021/08/21 02:38:02;;;;;;;2.69;1.30;;;;;;;13.65;89.77;99443.78;2034599;79;20205;-70
2021/08/21 02:41:05;;;;;;;1.92;1.59;;;;;;;13.63;89.79;99442.03;2036081;79;20174;-70
2021/08/21 02:44:08;;;;;;;1.63;1.35;;;;;;;13.61;89.87;99442.06;2034131;79;20221;-70
2021/08/21 02:47:10;;;;;;;2.36;1.31;;;;;;;13.57;89.81;99440.41;2034116;77;21192;-70
2021/08/21 02:50:13;;;;;;;4.28;1.45;;;;;;;13.58;89.84;99439.53;2034789;79;20154;-70
2021/08/21 02:53:15;;;;;;;3.40;1.40;;;;;;;13.55;89.84;99437.81;2034683;79;20189;-70
2021/08/21 02:56:18;;;;;;;2.75;1.61;;;;;;;13.55;89.77;99439.56;2034207;79;20173;-70
2021/08/21 02:59:21;;;;;;;1.64;1.51;;;;;;;13.56;89.73;99436.06;2034953;79;20194;-70
2021/08/21 03:02:23;;;;;;;2.10;1.40;;;;;;;13.55;89.59;99431.75;2029602;77;22486;-70
2021/08/21 03:05:26;;;;;;;1.67;1.14;;;;;;;13.55;89.55;99431.75;2028846;79;20572;-70
2021/08/21 03:08:28;;;;;;;3.59;1.26;;;;;;;13.52;89.78;99430.06;2029299;79;20806;-70
2021/08/21 03:11:31;;;;;;;2.69;1.23;;;;;;;13.49;89.54;99424.88;2028373;79;20196;-71
2021/08/21 03:14:34;;;;;;;1.81;1.27;;;;;;;13.47;89.57;99428.41;2028063;79;20265;-70
2021/08/21 03:17:37;;;;;;;2.15;1.29;;;;;;;13.44;89.50;99423.22;2031800;76;20428;-71
2021/08/21 03:20:40;;;;;;;1.46;1.20;;;;;;;13.41;89.67;99429.34;2032548;79;20161;-71
2021/08/21 03:23:43;;;;;;;1.39;1.09;;;;;;;13.41;89.71;99428.47;2033562;79;20205;-70
2021/08/21 03:26:45;;;;;;;3.05;1.02;;;;;;;13.41;89.62;99429.34;2032954;79;20720;-72
2021/08/21 03:29:48;;;;;;;1.27;1.17;;;;;;;13.37;89.60;99414.63;2033272;79;20162;-70
2021/08/21 03:32:50;;;;;;;1.88;1.36;;;;;;;13.35;89.83;99431.19;2027736;77;23360;-70
2021/08/21 03:35:53;;;;;;;2.70;1.19;;;;;;;13.34;89.85;99424.25;2027722;79;20204;-70
2021/08/21 03:38:56;;;;;;;1.30;1.16;;;;;;;13.32;89.93;99428.63;2028521;79;20188;-71
2021/08/21 03:41:59;;;;;;;2.53;1.23;;;;;;;13.29;89.85;99434.75;2027522;79;20166;-70
2021/08/21 03:45:01;;;;;;;2.49;1.42;;;;;;;13.26;89.81;99429.56;2027828;79;20162;-70
2021/08/21 03:48:04;;;;;;;2.42;1.41;;;;;;;13.25;89.78;99427.84;2028088;77;20674;-70
2021/08/21 03:51:07;;;;;;;1.83;1.05;;;;;;;13.25;89.76;99438.28;2027875;79;20162;-70
2021/08/21 03:54:09;;;;;;;1.92;1.55;;;;;;;13.20;89.82;99438.34;2028043;79;20298;-70
2021/08/21 03:57:13;;;;;;;2.85;1.19;;;;;;;13.19;89.92;99431.41;2028030;79;20571;-70
2021/08/21 04:00:16;;;;;;;3.17;1.29;;;;;;;13.17;89.75;99438.38;2027872;79;20183;-70
2021/08/21 04:03:19;;;;;;;1.77;0.94;;;;;;;13.15;89.78;99436.66;2034119;78;25082;-70
2021/08/21 04:06:21;;;;;;;6.25;1.33;;;;;;;13.13;89.70;99441.91;2033403;79;20669;-70
2021/08/21 04:09:24;;;;;;;2.60;1.35;;;;;;;13.11;89.71;99445.41;2033131;79;20303;-70
2021/08/21 04:12:27;;;;;;;1.77;1.30;;;;;;;13.10;89.73;99446.28;2032816;79;20677;-70
2021/08/21 04:15:29;;;;;;;2.53;1.11;;;;;;;13.08;90.00;99446.31;2032481;76;22323;-70
2021/08/21 04:18:32;;;;;;;2.28;1.09;;;;;;;13.09;90.16;99441.94;2033785;79;20282;-70
2021/08/21 04:21:35;;;;;;;1.21;1.11;;;;;;;13.09;89.94;99440.19;2037410;79;20307;-70
2021/08/21 04:24:38;;;;;;;3.03;1.00;;;;;;;13.07;89.71;99441.97;2033944;79;20169;-70
2021/08/21 04:27:40;;;;;;;4.31;1.29;;;;;;;13.00;89.68;99441.19;2036669;79;20166;-70
2021/08/21 04:30:43;;;;;;;2.06;1.21;;;;;;;12.98;89.71;99437.75;2031346;77;35698;-70
2021/08/21 04:33:46;;;;;;;3.33;1.20;;;;;;;12.95;89.67;99434.34;2025694;79;20755;-70
2021/08/21 04:36:49;;;;;;;3.40;1.26;;;;;;;12.90;89.75;99436.13;2024571;79;20210;-70
2021/08/21 04:39:52;;;;;;;3.08;1.16;;;;;;;12.87;89.79;99442.25;2026002;79;20185;-70
2021/08/21 04:42:55;;;;;;;1.70;1.20;;;;;;;12.86;89.61;99443.13;2020977;79;20159;-70
2021/08/21 04:45:57;;;;;;;2.76;1.30;;;;;;;12.86;89.51;99447.47;2026822;76;21571;-71
2021/08/21 04:49:00;;;;;;;4.22;1.15;;;;;;;12.83;89.70;99444.91;2030970;79;20201;-70
2021/08/21 04:52:03;;;;;;;1.74;1.08;;;;;;;12.80;89.77;99440.59;2030301;79;20201;-70
2021/08/21 04:55:06;;;;;;;1.64;1.31;;;;;;;12.75;89.78;99441.53;2030653;79;20209;-70
2021/08/21 04:58:09;;;;;;;1.48;1.30;;;;;;;12.75;90.02;99442.41;2031003;79;20177;-70
2021/08/21 05:01:11;;;;;;;1.67;1.29;;;;;;;12.78;90.16;99449.31;2027934;77;20861;-70
2021/08/21 05:04:14;;;;;;;4.22;1.13;;;;;;;12.78;90.18;99455.41;2025799;80;21435;-70
2021/08/21 05:07:17;;;;;;;2.17;1.50;;;;;;;12.81;90.20;99457.09;2025619;79;20535;-71
2021/08/21 05:10:19;;;;;;;1.88;1.16;;;;;;;12.83;90.07;99452.72;2025906;80;20200;-70
2021/08/21 05:13:22;;;;;;;2.47;1.15;;;;;;;12.83;90.09;99460.53;2026306;80;20845;-70
2021/08/21 05:16:25;;;;;;;5.22;1.29;;;;;;;12.84;90.06;99457.06;2026934;76;46513;-70
2021/08/21 05:19:35;;;;;;;1.52;1.42;;;;;;;12.86;89.98;99460.50;2031128;79;20198;-70
2021/08/21 05:22:48;;;;;;;2.08;1.05;;;;;;;12.88;90.00;99459.59;2031376;79;20274;-71
2021/08/21 05:25:52;;;;;;;3.09;1.10;;;;;;;12.96;90.12;99459.50;2031596;79;20688;-70
2021/08/21 05:28:56;;;;;;;3.80;1.16;;;;;;;13.02;89.98;99459.44;2031916;79;20197;-71
2021/08/21 05:31:59;;;;;;;2.96;1.11;;;;;;;13.06;90.19;99462.84;2030842;79;20938;-71
2021/08/21 05:35:02;;;;;;;2.51;1.45;;;;;;;13.06;90.14;99461.09;2031575;79;20611;-70
2021/08/21 05:38:06;;;;;;;2.05;1.31;;;;;;;13.11;90.11;99461.06;2031116;79;20285;-70
2021/08/21 05:41:08;;;;;;;1.96;1.10;;;;;;;13.19;90.32;99456.63;2030771;79;20755;-70
2021/08/21 05:44:11;;;;;;;2.88;1.26;;;;;;;13.33;90.29;99459.91;2031157;79;20222;-70
2021/08/21 05:47:14;;;;;;;1.74;1.52;;;;;;;13.47;90.11;99463.19;2026639;77;21140;-70
2021/08/21 05:50:18;;;;;;;2.06;1.24;;;;;;;13.67;89.67;99452.44;2026592;79;20192;-69
2021/08/21 05:53:21;;;;;;;1.34;1.24;;;;;;;14.18;88.47;99455.03;2027287;79;20339;-71
2021/08/21 05:56:24;;;;;;;1.27;0.99;;;;;;;14.79;85.86;99452.13;2024164;79;20179;-70
2021/08/21 05:59:31;;;;;;;2.80;1.24;;;;;;;15.09;84.48;99452.41;2028347;79;20191;-70
2021/08/21 06:02:34;;;;;;;2.19;1.08;;;;;;;15.30;83.36;99457.16;2029361;77;31138;-70
2021/08/21 06:05:41;;;;;;;1.79;0.96;;;;;;;15.52;82.42;99464.50;2033039;79;20189;-70
2021/08/21 06:08:43;;;;;;;3.91;1.05;;;;;;;15.77;81.36;99459.56;2033653;79;20242;-70
2021/08/21 06:11:46;;;;;;;4.40;1.21;;;;;;;16.03;80.64;99465.03;2033683;79;20250;-70
2021/08/21 06:14:49;;;;;;;1.00;0.90;;;;;;;16.40;79.49;99467.56;2033448;79;20690;-71
2021/08/21 06:17:51;;;;;;;4.55;1.23;;;;;;;16.67;78.42;99459.84;2027457;77;21336;-70
2021/08/21 06:20:55;;;;;;;1.10;1.04;;;;;;;16.90;77.60;99473.19;2028227;79;20316;-70
2021/08/21 06:23:57;;;;;;;2.83;1.10;;;;;;;17.18;76.68;99468.84;2028224;79;21029;-70
2021/08/21 06:27:00;;;;;;;0.94;0.94;;;;;;;17.39;75.97;99469.09;2028134;79;20170;-71
2021/08/21 06:30:05;;;;;;;1.23;0.90;;;;;;;17.61;75.12;99471.94;2027447;79;21234;-72
2021/08/21 06:33:08;;;;;;;2.30;1.10;;;;;;;17.89;74.29;99461.41;2026907;77;20225;-71
2021/08/21 06:36:11;;;;;;;1.63;0.90;;;;;;;18.20;73.49;99459.47;2027907;79;20228;-71
2021/08/21 06:39:13;;;;;;;3.86;1.10;;;;;;;18.39;72.56;99472.84;2027931;79;20296;-71
2021/08/21 06:42:16;;;;;;;3.41;1.09;;;;;;;18.58;72.15;99460.75;2027884;79;20200;-72
2021/08/21 06:45:18;;;;;;;2.28;1.00;;;;;;;18.81;71.85;99465.19;2027924;77;20322;-71
2021/08/21 06:48:21;;;;;;;2.17;1.13;;;;;;;19.04;71.39;99464.38;2030612;79;20639;-70
2021/08/21 06:51:23;;;;;;;2.50;1.10;;;;;;;19.24;70.66;99463.59;2033812;79;20611;-71
2021/08/21 06:54:26;;;;;;;2.67;1.27;;;;;;;19.45;70.34;99457.50;2033182;79;20173;-72
2021/08/21 06:57:29;;;;;;;5.85;1.15;;;;;;;19.66;69.34;99457.59;2033646;79;20185;-73
2021/08/21 07:00:32;;;;;;;2.33;1.00;;;;;;;19.85;69.01;99458.56;2031421;77;21182;-72
2021/08/21 07:03:35;;;;;;;4.01;1.39;;;;;;;20.04;68.79;99458.66;2028025;79;20505;-72
2021/08/21 07:06:38;;;;;;;1.85;1.08;;;;;;;20.23;68.25;99467.50;2028123;79;20208;-71
2021/08/21 07:09:40;;;;;;;2.92;1.25;;;;;;;20.43;67.62;99449.06;2023663;79;20597;-72
2021/08/21 07:12:43;;;;;;;10.73;1.98;;;;;;;20.67;67.03;99455.06;2028078;79;20592;-77
2021/08/21 07:15:46;;;;;;;1.23;0.93;;;;;;;20.97;66.78;99460.72;2029982;77;21147;-72
2021/08/21 07:18:48;;;;;;;1.65;0.66;;;;;;;21.04;65.09;99450.75;2028369;79;20256;-72
2021/08/21 07:21:53;;;;;;;5.54;0.90;;;;;;;21.10;64.17;99461.88;2027984;79;20208;-76
2021/08/21 07:24:55;;;;;;;0.70;0.70;;;;;;;21.16;63.57;99460.72;2030122;79;20204;-77
2021/08/21 07:27:59;;;;;;;1.96;0.76;;;;;;;21.35;62.75;99458.09;2028361;79;20186;-76
2021/08/21 07:31:02;;;;;;;2.63;0.91;;;;;;;21.63;62.55;99468.22;2030283;76;20708;-76
2021/08/21 07:34:04;;;;;;;0.90;0.90;;;;;;;21.91;62.16;99467.75;2033727;79;20278;-76
2021/08/21 07:37:07;;;;;;;1.66;0.95;;;;;;;22.17;61.53;99469.94;2033331;79;20161;-76
2021/08/21 07:40:10;;;;;;;1.02;0.80;;;;;;;22.35;60.33;99467.31;2033221;79;20201;-76
2021/08/21 07:43:13;;;;;;;1.19;0.85;;;;;;;22.54;60.12;99471.56;2033044;79;20174;-76
2021/08/21 07:46:15;;;;;;;1.08;0.90;;;;;;;22.69;59.84;99467.25;2032853;77;21679;-76
2021/08/21 07:49:18;;;;;;;0.77;0.77;;;;;;;22.86;58.53;99471.69;2033077;79;20170;-77
2021/08/21 07:52:21;;;;;;;1.20;0.89;;;;;;;22.82;57.25;99468.38;2033505;79;20737;-76
2021/08/21 07:55:25;;;;;;;0.88;0.85;;;;;;;22.99;57.42;99471.91;2032447;79;20201;-79
2021/08/21 07:58:27;;;;;;;5.16;0.90;;;;;;;23.26;58.18;99466.88;2033471;79;20255;-76
2021/08/21 08:01:30;;;;;;;0.74;0.74;;;;;;;23.46;56.66;99470.13;2030922;77;23701;-76
2021/08/21 08:04:33;;;;;;;3.13;0.98;;;;;;;23.58;55.91;99467.78;2027892;79;20915;-76
2021/08/21 08:07:35;;;;;;;3.08;0.90;;;;;;;23.63;55.20;99457.75;2028377;79;20175;-76
2021/08/21 08:10:38;;;;;;;6.24;0.80;;;;;;;23.65;55.46;99464.69;2028948;79;20204;-76
2021/08/21 08:13:40;;;;;;;1.80;0.93;;;;;;;23.84;54.58;99467.13;2028573;79;20324;-76
2021/08/21 08:16:43;;;;;;;1.69;1.11;;;;;;;23.95;54.38;99458.56;2027717;77;21759;-76
2021/08/21 08:19:45;;;;;;;2.11;1.05;;;;;;;24.08;53.84;99456.91;2028659;79;20311;-76
2021/08/21 08:22:48;;;;;;;3.99;1.33;;;;;;;24.22;53.23;99454.28;2027900;79;20321;-76
2021/08/21 08:25:51;;;;;;;1.38;0.89;;;;;;;24.46;54.22;99456.47;2027947;79;20286;-76
2021/08/21 08:28:53;;;;;;;1.00;0.90;;;;;;;24.69;53.82;99462.06;2030004;79;20175;-76
2021/08/21 08:31:56;;;;;;;3.34;1.09;;;;;;;24.68;53.32;99459.50;2031403;76;22973;-76
2021/08/21 08:35:00;;;;;;;0.80;0.80;;;;;;;24.82;53.57;99462.19;2033800;79;20165;-77
2021/08/21 08:38:03;;;;;;;2.00;0.82;;;;;;;25.07;52.75;99466.00;2036806;79;20183;-77
2021/08/21 08:41:10;;;;;;;0.91;0.80;;;;;;;25.15;52.75;99461.91;2034896;79;20158;-77
2021/08/21 08:44:15;;;;;;;1.20;0.80;;;;;;;25.30;51.52;99460.91;2033964;79;20213;-76
2021/08/21 08:47:19;;;;;;;1.08;0.70;;;;;;;25.45;51.60;99458.22;2033283;76;20982;-77
2021/08/21 08:50:21;;;;;;;2.33;0.80;;;;;;;25.71;52.18;99460.09;2033684;79;20274;-77
2021/08/21 08:53:24;;;;;;;2.78;0.76;;;;;;;25.86;51.00;99460.91;2034380;79;20177;-78
2021/08/21 08:56:27;;;;;;;3.39;0.77;;;;;;;26.03;50.67;99459.75;2034054;79;20187;-76
2021/08/21 08:59:30;;;;;;;1.09;0.80;;;;;;;26.17;49.68;99462.34;2033790;79;20819;-77
2021/08/21 09:02:44;;;;;;;0.70;0.70;;;;;;;26.19;48.70;99463.09;2028197;77;20567;-76
2021/08/21 09:05:49;;;;;;;3.95;0.80;;;;;;;26.24;48.81;99458.34;2027908;79;20222;-74
2021/08/21 09:09:08;;;;;;;1.50;0.82;;;;;;;26.45;49.96;99464.88;2028656;79;20204;-74
2021/08/21 09:12:23;;;;;;;0.99;0.82;;;;;;;26.64;49.15;99458.28;2027614;80;21161;-74
2021/08/21 09:15:28;;;;;;;1.69;1.00;;;;;;;26.32;48.21;99460.47;2026965;77;24016;-74
2021/08/21 09:18:31;;;;;;;2.15;0.80;;;;;;;26.32;47.80;99452.47;2033374;79;20225;-73
2021/08/21 09:21:59;;;;;;;2.67;0.86;;;;;;;26.56;49.04;99464.13;2031820;79;20649;-74
2021/08/21 09:25:03;;;;;;;2.49;0.90;;;;;;;26.64;47.57;99464.47;2032688;79;20243;-73
2021/08/21 09:28:17;;;;;;;3.84;1.06;;;;;;;26.87;48.24;99462.00;2033004;79;20169;-73
2021/08/21 09:31:21;;;;;;;3.01;0.90;;;;;;;26.69;47.34;99456.16;2030237;77;25313;-73
2021/08/21 09:34:24;;;;;;;1.19;0.91;;;;;;;26.88;48.19;99461.88;2033312;79;20702;-73
2021/08/21 09:37:27;;;;;;;2.47;1.10;;;;;;;27.00;47.51;99462.88;2031827;79;20260;-73
2021/08/21 09:40:30;;;;;;;0.93;0.93;;;;;;;27.17;48.19;99465.19;2032535;79;20169;-73
2021/08/21 09:43:36;;;;;;;1.60;0.89;;;;;;;27.22;47.10;99462.19;2032190;79;20170;-74
2021/08/21 09:46:40;;;;;;;1.83;0.93;;;;;;;27.17;47.05;99461.69;2028811;77;20186;-74
2021/08/21 09:49:44;;;;;;;1.45;0.91;;;;;;;27.27;48.10;99460.03;2027878;80;20162;-72
2021/08/21 09:52:48;;;;;;;1.54;1.23;;;;;;;27.55;47.70;99457.09;2026562;79;20170;-72
2021/08/21 09:55:51;;;;;;;1.00;0.90;;;;;;;27.63;46.46;99454.72;2027197;80;20216;-72
2021/08/21 09:58:54;;;;;;;0.90;0.90;;;;;;;27.79;46.06;99449.09;2028019;80;21126;-79
2021/08/21 10:01:56;;;;;;;2.30;1.44;;;;;;;27.81;45.90;99447.16;2030332;77;22058;-84
2021/08/21 10:05:00;;;;;;;1.52;1.00;;;;;;;27.87;45.79;99448.56;2034729;79;20649;-78
2021/08/21 10:08:09;;;;;;;1.11;0.93;;;;;;;27.63;45.18;99437.88;2033590;79;20177;-79
2021/08/21 10:11:16;;;;;;;1.66;1.05;;;;;;;27.76;45.54;99435.16;2033980;79;20165;-83
2021/08/21 10:14:19;;;;;;;3.70;1.08;;;;;;;27.47;46.21;99432.81;2033878;79;20209;-80
2021/08/21 10:17:22;;;;;;;1.10;0.91;;;;;;;27.38;47.42;99433.47;2028847;77;21222;-79
2021/08/21 10:20:24;;;;;;;1.39;0.91;;;;;;;27.56;47.17;99434.78;2028220;79;20175;-81
2021/08/21 10:23:28;;;;;;;1.55;0.88;;;;;;;27.83;48.08;99431.03;2029438;79;20212;-80
2021/08/21 10:26:37;;;;;;;1.61;0.84;;;;;;;28.12;47.98;99432.38;2028373;79;20781;-79
2021/08/21 10:29:40;;;;;;;1.45;1.08;;;;;;;28.21;45.13;99421.00;2028528;79;20735;-79
2021/08/21 10:32:44;;;;;;;2.05;0.90;;;;;;;28.21;45.46;99434.34;2032263;76;21951;-80
2021/08/21 10:35:47;;;;;;;1.59;1.08;;;;;;;28.30;46.25;99424.81;2033372;79;20166;-80
2021/08/21 10:38:49;;;;;;;1.29;1.02;;;;;;;28.02;43.90;99426.03;2033871;79;20191;-79
2021/08/21 10:41:54;;;;;;;2.81;1.05;;;;;;;27.87;45.13;99429.88;2033511;79;20685;-80
2021/08/21 10:44:58;;;;;;;3.53;1.10;;;;;;;27.93;45.04;99426.72;2029826;79;20636;-78
2021/08/21 10:48:01;;;;;;;1.89;1.06;;;;;;;27.69;44.93;99426.75;2027970;78;20202;-83
2021/08/21 10:51:36;;;;;;;1.11;1.01;;;;;;;27.93;46.43;99429.41;2029227;79;20688;-82
2021/08/21 10:54:46;;;;;;;1.00;1.00;;;;;;;28.07;44.17;99431.03;2028524;79;20310;-78
2021/08/21 10:57:58;;;;;;;3.22;0.98;;;;;;;27.73;43.41;99436.22;2027925;79;20199;-77
2021/08/21 11:01:04;;;;;;;2.00;1.10;;;;;;;27.96;44.56;99426.50;2029835;76;20305;-78
2021/08/21 11:04:07;;;;;;;1.30;1.20;;;;;;;28.19;43.89;99433.63;2033697;79;20177;-78
2021/08/21 11:07:37;;;;;;;1.61;1.20;;;;;;;28.37;43.39;99441.19;2032865;79;20185;-78
2021/08/21 11:10:40;;;;;;;1.15;1.10;;;;;;;28.21;43.24;99434.34;2037391;79;20227;-83
2021/08/21 11:14:08;;;;;;;3.04;1.10;;;;;;;27.72;43.08;99433.69;2032821;79;20269;-80
2021/08/21 11:17:31;;;;;;;1.14;1.02;;;;;;;27.79;44.58;99424.22;2028480;78;21972;-80
2021/08/21 11:20:35;;;;;;;1.27;1.17;;;;;;;28.15;44.15;99420.59;2027676;79;20977;-78
2021/08/21 11:23:51;;;;;;;2.39;1.25;;;;;;;28.38;43.55;99419.75;2027942;79;20166;-79
2021/08/21 11:27:21;;;;;;;1.04;0.96;;;;;;;28.33;42.80;99421.03;2028157;79;20186;-79
2021/08/21 11:30:24;;;;;;;1.00;1.00;;;;;;;28.55;44.48;99413.09;2027364;77;22182;-83
2021/08/21 11:33:27;;;;;;;2.21;1.01;;;;;;;28.83;43.72;99417.94;2032796;79;20242;-82
2021/08/21 11:36:29;;;;;;;1.45;1.20;;;;;;;28.94;42.22;99413.59;2032523;79;20603;-82
2021/08/21 11:39:32;;;;;;;1.50;1.25;;;;;;;28.89;42.15;99416.63;2029892;79;20311;-83
2021/08/21 11:42:46;;;;;;;3.10;1.04;;;;;;;29.08;42.48;99410.66;2032121;79;20302;-83
2021/08/21 11:45:49;;;;;;;1.16;1.06;;;;;;;29.18;42.57;99409.78;2030234;77;21318;-81
2021/08/21 11:48:52;;;;;;;1.50;1.00;;;;;;;29.27;40.70;99407.38;2027105;79;20924;-81
2021/08/21 11:52:00;;;;;;;4.39;1.10;;;;;;;29.26;40.24;99400.28;2027369;79;20693;-82
2021/08/21 11:55:04;;;;;;;2.91;1.10;;;;;;;29.23;40.38;99404.06;2028130;79;20275;-82
2021/08/21 11:58:08;;;;;;;2.04;1.25;;;;;;;29.31;41.02;99388.25;2028174;79;20751;-80
2021/08/21 12:01:14;;;;;;;2.17;1.10;;;;;;;29.27;41.19;99392.16;2028766;77;22768;-84
2021/08/21 12:07:33;;;;;;;1.33;1.19;;;;;;;29.23;41.27;99384.50;2032582;79;20203;-78
2021/08/21 12:10:43;;;;;;;2.44;0.90;;;;;;;29.30;41.15;99383.03;2032161;79;20662;-81
2021/08/21 12:13:46;;;;;;;2.13;0.96;;;;;;;29.28;40.81;99377.81;2032602;79;21054;-81
2021/08/21 12:16:55;;;;;;;1.92;1.24;;;;;;;29.37;40.86;99379.72;2030256;76;23298;-84
2021/08/21 12:20:01;;;;;;;1.27;1.00;;;;;;;29.29;40.89;99384.84;2033020;79;21003;-80
2021/08/21 12:23:06;;;;;;;2.00;0.98;;;;;;;29.27;40.50;99369.91;2032909;79;20273;-80
2021/08/21 12:26:08;;;;;;;1.36;1.26;;;;;;;29.14;40.85;99375.41;2036036;79;20197;-82
2021/08/21 12:29:22;;;;;;;2.60;1.20;;;;;;;29.13;40.66;99379.06;2032879;79;20215;-83
2021/08/21 12:32:25;;;;;;;1.48;1.10;;;;;;;28.84;40.65;99384.03;2027331;77;22355;-80
2021/08/21 12:35:34;;;;;;;0.99;0.84;;;;;;;28.69;41.66;99388.78;2027524;79;20201;-77
2021/08/21 12:38:37;;;;;;;5.13;1.41;;;;;;;28.91;40.52;99384.44;2026628;79;20223;-80
2021/08/21 12:41:49;;;;;;;1.17;0.95;;;;;;;29.01;40.95;99380.88;2027053;79;21190;-80
2021/08/21 12:44:52;;;;;;;1.10;1.00;;;;;;;29.02;39.73;99379.06;2028087;79;20222;-82
2021/08/21 12:47:54;;;;;;;3.71;1.00;;;;;;;29.11;40.20;99373.84;2032729;77;21225;-81
2021/08/21 12:50:57;;;;;;;1.16;1.06;;;;;;;29.13;40.70;99377.22;2033360;79;20283;-82
2021/08/21 12:54:04;;;;;;;2.21;0.96;;;;;;;29.13;40.62;99379.91;2029302;79;20753;-79
2021/08/21 12:57:13;;;;;;;1.70;0.92;;;;;;;29.10;39.89;99373.97;2032334;79;20173;-80
2021/08/21 13:00:19;;;;;;;1.81;1.10;;;;;;;29.20;40.55;99366.88;2032321;79;20673;-81
2021/08/21 13:03:23;;;;;;;2.92;0.98;;;;;;;29.11;39.63;99371.16;2033622;79;20185;-80
2021/08/21 13:06:25;;;;;;;1.01;0.91;;;;;;;29.27;39.87;99375.28;2032194;79;20166;-80
2021/08/21 13:09:28;;;;;;;1.56;1.06;;;;;;;29.28;40.63;99364.44;2033617;79;20878;-80
2021/08/21 13:12:30;;;;;;;2.72;0.91;;;;;;;29.33;40.13;99372.94;2032696;79;20791;-80
2021/08/21 13:15:33;;;;;;;1.20;1.10;;;;;;;29.41;39.27;99369.59;2031311;77;20806;-79
2021/08/21 13:18:36;;;;;;;3.41;0.90;;;;;;;29.27;38.61;99365.41;2032973;79;20296;-81
2021/08/21 13:21:38;;;;;;;1.44;0.99;;;;;;;29.27;38.55;99364.56;2032117;79;20185;-80
2021/08/21 13:24:41;;;;;;;2.40;0.96;;;;;;;29.27;40.38;99361.88;2032795;79;20231;-81
2021/08/21 13:27:43;;;;;;;1.15;0.90;;;;;;;29.33;38.87;99361.38;2032537;79;20169;-81
2021/08/21 13:30:47;;;;;;;1.20;1.10;;;;;;;29.38;38.57;99353.81;2030094;77;21528;-83
2021/08/21 13:33:50;;;;;;;3.29;0.90;;;;;;;29.31;38.94;99357.97;2028039;80;20593;-83
2021/08/21 13:36:52;;;;;;;1.73;1.10;;;;;;;29.16;38.17;99352.91;2027760;79;20198;-82
2021/08/21 13:39:55;;;;;;;4.56;1.04;;;;;;;29.11;38.69;99349.78;2025071;79;20614;-80
2021/08/21 13:42:58;;;;;;;1.54;1.27;;;;;;;28.87;38.46;99357.09;2029000;79;20186;-79
2021/08/21 13:46:02;;;;;;;2.00;0.84;;;;;;;28.84;39.15;99352.81;2027831;77;20233;-79
2021/08/21 13:49:04;;;;;;;1.86;1.02;;;;;;;28.98;39.66;99356.22;2028604;79;20186;-81
2021/08/21 13:52:07;;;;;;;2.21;0.85;;;;;;;29.04;40.14;99347.69;2028207;79;20689;-80
2021/08/21 13:55:10;;;;;;;0.96;0.95;;;;;;;29.21;38.71;99349.00;2028424;79;20241;-80
2021/08/21 13:58:12;;;;;;;3.67;1.10;;;;;;;29.22;39.07;99342.66;2029125;79;21012;-76
2021/08/21 14:01:15;;;;;;;2.10;1.09;;;;;;;29.18;39.30;99340.25;2029201;77;26903;-76
2021/08/21 14:04:18;;;;;;;2.81;0.91;;;;;;;29.04;40.50;99337.00;2033431;79;20240;-76
2021/08/21 14:07:20;;;;;;;0.98;0.85;;;;;;;28.72;40.35;99342.25;2033412;79;20451;-76
2021/08/21 14:10:23;;;;;;;2.29;1.05;;;;;;;28.80;42.09;99338.00;2029061;79;20216;-76
2021/08/21 14:13:26;;;;;;;0.96;0.96;;;;;;;29.00;41.64;99338.25;2033266;79;20197;-78
2021/08/21 14:16:28;;;;;;;0.94;0.81;;;;;;;29.12;39.32;99334.56;2029528;77;21808;-79
2021/08/21 14:19:31;;;;;;;1.36;0.90;;;;;;;29.17;39.67;99335.88;2028152;79;20208;-77
2021/08/21 14:22:34;;;;;;;1.84;1.27;;;;;;;29.08;40.52;99331.28;2027854;79;20192;-86
2021/08/21 14:25:37;;;;;;;1.73;0.91;;;;;;;28.88;39.95;99326.69;2027986;79;20208;-78
2021/08/21 14:28:39;;;;;;;7.16;1.00;;;;;;;28.88;41.26;99329.38;2028372;79;20288;-82
2021/08/21 14:31:42;;;;;;;0.93;0.80;;;;;;;28.91;41.45;99317.63;2027015;77;21381;-78